Terminal Aerodrome Forecast
Issued by NWS Bismarck, ND

Home | Current Version | Previous Version | Text Only | Print | Product List | Glossary Off
Versions: 1 2 3 4 5 6 7 8 9 10 11 12 13 14 15 16 17 18 19 20 21 22 23

000
FTUS43 KBIS 272100 AAB
TAFISN
TAF AMD
KISN 272104Z 2721/2818 13009G16KT P6SM -SN SCT015 OVC021
      TEMPO 2721/2724 2SM -SN BR OVC015
     FM280100 09008KT P6SM SCT015 BKN030 OVC070
     FM280900 07010KT 6SM -SN BR OVC025=

USA.gov is the U.S. government's official web portal to all federal, state and local government web resources and services.